Sebastian, Florida
Current Conditions -  °F | °C
As of 8:53 PM on Monday 24 Nov 2014 (Local Time) from KVRB Reporting Station
Few Clouds Few Clouds  
Wind Chill: 76°   Ceiling: Unl
Heat Index: 76°   Visibility: 10mi
Dew Point: 74°   Wind: 5mph
Humidity: 94%   Direction: 160°SSE
Pressure: 30.02"   Gusts: NA
Location:  27.82°N, 80.47°W
Report Text: KVRB 250153Z 16004KT 10SM FEW045 24/23 A3002 RMK AO2 SLP165 T02440233
Loading
Personal Weather Stations






























Interactive Weather Map New forecast layout! Learn more

10-Day Weather Forecast

Advertisements
Track Severe Weather on mobile